Time;durP1;ratioP1;P1;durP2;ratioP2;P2;SDS_P1;SDS_P2;PMS_P1;PMS_P2;Temp;Humidity;BMP_temperature;BMP_pressure;BME280_temperature;BME280_humidity;BME280_pressure;Samples;Min_cycle;Max_cycle;Signal;HPM_P1;HPM_P2
2023/10/16 00:00:47;;;;;;;2.77;1.90;;;4.90;99.90;;;;;;6134002;23;20612;-73
2023/10/16 00:03:14;;;;;;;5.90;2.40;;;4.90;99.90;;;;;;6134890;23;20376;-72
2023/10/16 00:05:49;;;;;;;3.07;1.80;;;4.90;99.90;;;;;;6135842;23;20364;-71
2023/10/16 00:08:18;;;;;;;3.33;2.07;;;4.90;99.90;;;;;;6111978;23;20380;-73
2023/10/16 00:10:57;;;;;;;2.90;2.10;;;4.80;99.90;;;;;;6133041;23;20789;-74
2023/10/16 00:13:27;;;;;;;3.30;2.07;;;4.80;99.90;;;;;;6134017;23;20720;-74
2023/10/16 00:16:02;;;;;;;2.00;1.60;;;4.80;99.90;;;;;;6132282;23;20408;-73
2023/10/16 00:18:33;;;;;;;2.20;1.67;;;4.70;99.90;;;;;;6134610;23;20450;-74
2023/10/16 00:20:59;;;;;;;3.20;1.90;;;4.70;99.90;;;;;;6132736;23;20793;-72
2023/10/16 00:23:25;;;;;;;3.30;2.57;;;4.60;99.90;;;;;;6107043;23;20411;-73
2023/10/16 00:25:51;;;;;;;2.17;1.53;;;4.60;99.90;;;;;;6131775;23;20876;-73
2023/10/16 00:28:23;;;;;;;3.50;2.27;;;4.60;99.90;;;;;;6132489;23;20211;-74
2023/10/16 00:30:51;;;;;;;6.13;3.10;;;4.70;99.90;;;;;;6132262;23;20452;-73
2023/10/16 00:33:17;;;;;;;5.60;3.80;;;4.70;99.90;;;;;;6106376;23;20404;-72
2023/10/16 00:35:48;;;;;;;7.63;3.93;;;4.80;99.90;;;;;;6108595;23;20470;-73
2023/10/16 00:38:14;;;;;;;4.53;3.03;;;4.80;99.90;;;;;;6132243;23;20357;-72
2023/10/16 00:40:51;;;;;;;4.03;3.20;;;4.80;99.90;;;;;;6106257;23;20372;-72
2023/10/16 00:43:20;;;;;;;5.00;2.83;;;4.90;99.90;;;;;;6131794;23;20470;-73
2023/10/16 00:46:05;;;;;;;5.77;3.03;;;4.80;99.90;;;;;;6131605;23;20823;-75
2023/10/16 00:48:37;;;;;;;4.83;3.00;;;4.80;99.90;;;;;;6132140;23;20808;-73
2023/10/16 00:51:06;;;;;;;6.53;3.60;;;4.80;99.90;;;;;;6108044;23;20632;-73
2023/10/16 00:53:33;;;;;;;4.30;3.00;;;4.80;99.90;;;;;;6110788;23;20502;-72
2023/10/16 00:56:02;;;;;;;5.90;2.70;;;4.80;99.90;;;;;;6106884;23;20419;-72
2023/10/16 00:58:29;;;;;;;4.60;3.00;;;4.80;99.90;;;;;;6107719;23;20454;-73
2023/10/16 01:01:01;;;;;;;5.23;2.73;;;4.80;99.90;;;;;;6132881;23;20427;-73
2023/10/16 01:03:31;;;;;;;4.20;2.80;;;4.80;99.90;;;;;;6106661;23;20406;-74
2023/10/16 01:05:58;;;;;;;3.03;2.43;;;4.70;99.90;;;;;;6133855;23;20390;-73
2023/10/16 01:08:25;;;;;;;4.57;2.73;;;4.70;99.90;;;;;;6106639;23;20398;-73
2023/10/16 01:10:56;;;;;;;2.80;2.40;;;4.70;99.90;;;;;;6130612;23;20375;-73
2023/10/16 01:13:28;;;;;;;3.70;2.50;;;4.60;99.90;;;;;;6106111;23;20407;-73
2023/10/16 01:15:56;;;;;;;4.37;2.37;;;4.60;99.90;;;;;;6133702;23;20488;-74
2023/10/16 01:18:23;;;;;;;2.87;2.37;;;4.60;99.90;;;;;;6133065;23;20379;-72
2023/10/16 01:20:50;;;;;;;3.10;2.30;;;4.50;99.90;;;;;;6131706;23;20738;-74
2023/10/16 01:23:20;;;;;;;2.87;2.27;;;4.50;99.90;;;;;;6128269;23;20476;-71
2023/10/16 01:25:48;;;;;;;2.93;2.00;;;4.50;99.90;;;;;;6131894;23;20904;-73
2023/10/16 01:28:15;;;;;;;3.30;2.37;;;4.40;99.90;;;;;;6133562;23;20425;-73
2023/10/16 01:30:43;;;;;;;5.40;3.03;;;4.40;99.90;;;;;;6133334;23;20368;-74
2023/10/16 01:33:09;;;;;;;12.37;5.40;;;4.50;99.90;;;;;;6131904;23;20376;-73
2023/10/16 01:35:38;;;;;;;8.07;5.63;;;4.50;99.90;;;;;;6133652;23;20910;-74
2023/10/16 01:38:15;;;;;;;7.00;5.10;;;4.60;99.90;;;;;;6134514;23;20136;-72
2023/10/16 01:41:13;;;;;;;6.40;4.50;;;4.60;99.90;;;;;;6134275;23;20351;-73
2023/10/16 01:43:39;;;;;;;8.40;3.80;;;4.60;99.90;;;;;;6133779;23;20383;-72
2023/10/16 01:46:09;;;;;;;6.13;4.47;;;4.60;99.90;;;;;;6134465;23;20611;-74
2023/10/16 01:48:47;;;;;;;4.83;4.00;;;4.60;99.90;;;;;;6132500;23;20372;-73
2023/10/16 01:51:19;;;;;;;9.30;5.00;;;4.50;99.90;;;;;;6132387;23;20379;-75
2023/10/16 01:53:47;;;;;;;5.73;4.07;;;4.50;99.90;;;;;;6134508;23;20398;-72
2023/10/16 01:56:13;;;;;;;7.80;4.80;;;4.50;99.90;;;;;;6133239;23;21007;-72
2023/10/16 01:58:44;;;;;;;6.60;4.57;;;4.50;99.90;;;;;;6132696;23;20384;-73
2023/10/16 02:01:14;;;;;;;9.90;5.37;;;4.50;99.90;;;;;;6132654;23;20376;-73
2023/10/16 02:03:44;;;;;;;6.57;5.03;;;4.40;99.90;;;;;;6134138;23;20391;-72
2023/10/16 02:06:14;;;;;;;5.67;3.90;;;4.40;99.90;;;;;;6134520;23;20848;-73
2023/10/16 02:08:41;;;;;;;5.90;4.10;;;4.40;99.90;;;;;;6134149;23;20385;-73
2023/10/16 02:11:07;;;;;;;7.10;3.37;;;4.30;99.90;;;;;;6134504;23;20463;-72
2023/10/16 02:13:36;;;;;;;4.23;3.13;;;4.30;99.90;;;;;;6109560;23;20709;-74
2023/10/16 02:16:10;;;;;;;3.93;3.30;;;4.20;99.90;;;;;;6132395;23;20474;-73
2023/10/16 02:18:37;;;;;;;4.53;3.03;;;4.20;99.90;;;;;;6131597;23;20384;-72
2023/10/16 02:21:11;;;;;;;4.10;2.60;;;4.20;99.90;;;;;;6132389;23;20576;-73
2023/10/16 02:23:39;;;;;;;3.70;3.20;;;4.20;99.90;;;;;;6133432;23;20174;-73
2023/10/16 02:26:09;;;;;;;3.97;2.70;;;4.20;99.90;;;;;;6132995;23;20616;-73
2023/10/16 02:28:35;;;;;;;8.53;4.00;;;4.20;99.90;;;;;;6085692;23;20466;-76
2023/10/16 02:31:13;;;;;;;5.27;3.90;;;4.20;99.90;;;;;;6134083;23;20611;-74
2023/10/16 02:33:46;;;;;;;5.33;3.87;;;4.20;99.90;;;;;;6133881;23;20631;-73
2023/10/16 02:36:14;;;;;;;8.10;4.90;;;4.30;99.90;;;;;;6133854;23;20415;-75
2023/10/16 02:38:41;;;;;;;7.80;4.73;;;4.30;99.90;;;;;;6133399;23;20761;-72
2023/10/16 02:41:09;;;;;;;5.37;4.27;;;4.30;99.90;;;;;;6131884;23;20395;-74
2023/10/16 02:43:37;;;;;;;5.07;4.30;;;4.30;99.90;;;;;;6131588;23;20396;-72
2023/10/16 02:46:09;;;;;;;9.30;6.63;;;4.30;99.90;;;;;;6111246;23;20409;-72
2023/10/16 02:48:35;;;;;;;6.97;4.47;;;4.30;99.90;;;;;;6123614;23;20391;-73
2023/10/16 02:51:02;;;;;;;5.50;4.50;;;4.30;99.90;;;;;;6148640;23;20391;-73
2023/10/16 02:53:29;;;;;;;6.27;4.20;;;4.20;99.90;;;;;;6145908;23;20387;-74
2023/10/16 02:56:04;;;;;;;6.77;4.50;;;4.20;99.90;;;;;;6135101;23;20411;-74
2023/10/16 02:58:30;;;;;;;7.20;4.40;;;4.20;99.90;;;;;;6134126;23;20366;-73
2023/10/16 03:00:57;;;;;;;5.03;4.40;;;4.20;99.90;;;;;;6108664;23;20379;-74
2023/10/16 03:03:27;;;;;;;6.57;4.63;;;4.20;99.90;;;;;;6133730;23;20399;-72
2023/10/16 03:05:58;;;;;;;5.93;5.00;;;4.10;99.90;;;;;;6132815;23;20379;-74
2023/10/16 03:08:30;;;;;;;7.27;4.37;;;4.10;99.90;;;;;;6132651;23;20370;-72
2023/10/16 03:11:06;;;;;;;5.40;4.17;;;4.10;99.90;;;;;;6132703;23;20364;-73
2023/10/16 03:13:38;;;;;;;5.23;3.73;;;4.00;99.90;;;;;;6131713;23;20402;-72
2023/10/16 03:16:16;;;;;;;5.00;3.70;;;4.00;99.90;;;;;;6132824;23;20435;-71
2023/10/16 03:18:44;;;;;;;5.57;3.93;;;4.00;99.90;;;;;;6134425;23;20359;-73
2023/10/16 03:23:43;;;;;;;8.40;4.37;;;3.90;99.90;;;;;;6132167;23;20483;-73
2023/10/16 03:26:26;;;;;;;5.37;4.37;;;3.90;99.90;;;;;;6132113;23;20368;-73
2023/10/16 03:28:56;;;;;;;5.13;3.93;;;3.90;99.90;;;;;;6107008;23;20792;-73
2023/10/16 03:31:22;;;;;;;6.67;4.70;;;3.90;99.90;;;;;;6107263;23;21046;-73
2023/10/16 03:33:51;;;;;;;5.60;4.50;;;3.90;99.90;;;;;;6107393;23;20404;-72
2023/10/16 03:36:17;;;;;;;6.93;4.73;;;3.90;99.90;;;;;;6085728;23;20423;-74
2023/10/16 03:38:43;;;;;;;6.27;3.83;;;3.90;99.90;;;;;;6132614;23;20360;-72
2023/10/16 03:41:51;;;;;;;4.83;3.73;;;3.90;99.90;;;;;;6132374;23;20356;-73
2023/10/16 03:44:07;;;;;;;5.37;3.83;;;3.90;99.90;;;;;;6125401;23;20463;-73
2023/10/16 03:46:33;;;;;;;4.37;3.70;;;3.90;99.90;;;;;;6132048;23;20395;-73
2023/10/16 03:48:58;;;;;;;5.03;3.70;;;3.90;99.90;;;;;;6133317;23;20368;-73
2023/10/16 03:51:24;;;;;;;4.17;3.37;;;3.80;99.90;;;;;;6106268;23;20478;-72
2023/10/16 03:53:56;;;;;;;5.00;3.60;;;3.90;99.90;;;;;;6133021;23;20167;-73
2023/10/16 03:56:25;;;;;;;5.20;3.40;;;3.90;99.90;;;;;;6131965;23;20491;-71
2023/10/16 03:58:53;;;;;;;5.23;3.20;;;3.80;99.90;;;;;;6131048;23;20372;-74
2023/10/16 04:01:24;;;;;;;4.47;3.60;;;3.90;99.90;;;;;;6132710;23;20403;-73
2023/10/16 04:03:56;;;;;;;5.60;3.60;;;3.90;99.90;;;;;;6106627;23;20404;-73
2023/10/16 04:06:22;;;;;;;4.10;3.67;;;3.90;99.90;;;;;;6108494;23;20448;-73
2023/10/16 04:08:49;;;;;;;5.60;4.07;;;3.80;99.90;;;;;;6134492;23;20363;-73
2023/10/16 04:11:17;;;;;;;6.93;4.30;;;3.80;99.90;;;;;;6133466;23;20382;-71
2023/10/16 04:13:47;;;;;;;5.83;3.70;;;3.80;99.90;;;;;;6132507;23;20439;-74
2023/10/16 04:18:56;;;;;;;10.97;5.97;;;3.80;99.90;;;;;;6134735;23;20356;-73
2023/10/16 04:26:57;;;;;;;8.60;5.43;;;3.90;99.90;;;;;;6133340;23;20378;-73
2023/10/16 04:29:33;;;;;;;6.63;4.87;;;3.90;99.90;;;;;;6131820;23;20381;-74
2023/10/16 04:32:39;;;;;;;9.80;6.57;;;3.90;99.90;;;;;;6134839;23;20756;-74
2023/10/16 04:34:52;;;;;;;8.27;5.57;;;4.00;99.90;;;;;;6134511;23;20650;-73
2023/10/16 04:37:31;;;;;;;6.97;4.27;;;4.00;99.90;;;;;;6134191;23;20435;-74
2023/10/16 04:42:50;;;;;;;6.10;4.57;;;3.90;99.90;;;;;;6135935;23;20498;-73
2023/10/16 05:06:38;;;;;;;9.33;7.10;;;3.70;99.90;;;;;;6074777;23;20374;-75
2023/10/16 05:20:34;;;;;;;13.77;9.10;;;3.70;99.90;;;;;;6078810;23;20366;-73
2023/10/16 06:15:20;;;;;;;11.63;6.87;;;3.50;99.90;;;;;;6172962;23;20433;-75
2023/10/16 06:17:46;;;;;;;10.50;6.47;;;3.60;99.90;;;;;;6150965;23;20399;-73
2023/10/16 06:20:19;;;;;;;11.93;8.33;;;3.60;99.90;;;;;;6124032;23;20390;-76
2023/10/16 06:22:51;;;;;;;9.73;6.67;;;3.60;99.90;;;;;;6143667;23;20482;-76
2023/10/16 06:25:19;;;;;;;8.73;6.10;;;3.70;99.90;;;;;;6142813;23;20419;-75
2023/10/16 06:27:46;;;;;;;11.43;7.30;;;3.70;99.90;;;;;;6142462;23;20370;-75
2023/10/16 06:30:18;;;;;;;10.37;8.17;;;3.70;99.90;;;;;;6118634;23;20435;-76
2023/10/16 06:32:44;;;;;;;11.03;9.13;;;3.80;99.90;;;;;;6119424;23;20391;-76
2023/10/16 06:35:14;;;;;;;16.53;11.50;;;3.80;99.90;;;;;;6145963;23;20391;-75
2023/10/16 06:37:41;;;;;;;16.13;10.00;;;3.80;99.90;;;;;;6146251;23;20211;-75
2023/10/16 06:40:17;;;;;;;14.43;9.00;;;3.90;99.90;;;;;;6145996;23;20440;-74
2023/10/16 06:42:46;;;;;;;20.90;10.90;;;3.90;99.90;;;;;;6118910;23;20394;-75
2023/10/16 06:45:19;;;;;;;14.97;10.50;;;4.00;99.90;;;;;;6143196;23;20431;-73
2023/10/16 06:47:49;;;;;;;17.83;11.77;;;4.00;99.90;;;;;;6141299;23;20379;-75
2023/10/16 06:52:51;;;;;;;15.03;9.90;;;4.10;99.90;;;;;;6146939;23;20387;-75
2023/10/16 06:55:18;;;;;;;15.77;10.13;;;4.10;99.90;;;;;;6142613;23;20403;-73
2023/10/16 06:57:45;;;;;;;18.63;10.60;;;4.20;99.90;;;;;;6120480;23;20878;-75
2023/10/16 07:00:22;;;;;;;15.80;10.20;;;4.20;99.90;;;;;;6119148;23;20372;-74
2023/10/16 07:02:54;;;;;;;13.23;9.27;;;4.30;99.90;;;;;;6143707;23;20379;-74
2023/10/16 07:05:43;;;;;;;16.63;11.80;;;4.30;99.90;;;;;;6170146;23;20840;-75
2023/10/16 07:08:16;;;;;;;32.00;23.60;;;4.40;99.90;;;;;;6146917;23;20360;-74
2023/10/16 07:10:49;;;;;;;31.27;17.60;;;4.40;99.90;;;;;;6121328;23;20388;-74
2023/10/16 07:13:28;;;;;;;21.43;12.97;;;4.40;99.90;;;;;;6119617;23;20400;-74
2023/10/16 07:16:02;;;;;;;15.83;10.63;;;4.40;99.90;;;;;;6121414;23;20500;-76
2023/10/16 07:18:31;;;;;;;16.00;10.30;;;4.50;99.90;;;;;;6144813;23;20770;-75
2023/10/16 07:23:29;;;;;;;16.97;11.00;;;4.60;99.90;;;;;;6117743;23;20399;-75
2023/10/16 07:25:59;;;;;;;14.07;9.50;;;4.70;99.90;;;;;;6093041;23;20634;-76
2023/10/16 07:28:27;;;;;;;9.27;7.20;;;4.80;99.90;;;;;;6142563;23;20387;-74
2023/10/16 07:30:56;;;;;;;10.90;8.17;;;4.80;99.90;;;;;;6119831;23;20399;-76
2023/10/16 07:33:24;;;;;;;9.70;8.17;;;4.90;99.90;;;;;;6119371;23;20405;-77
2023/10/16 07:35:53;;;;;;;9.93;6.60;;;5.00;99.90;;;;;;6096331;23;20864;-74
2023/10/16 07:38:26;;;;;;;10.97;8.17;;;5.00;99.90;;;;;;6097961;23;20384;-75
2023/10/16 07:40:56;;;;;;;8.40;7.13;;;5.10;99.90;;;;;;6123344;23;20384;-76
2023/10/16 07:43:29;;;;;;;7.07;5.03;;;5.20;99.90;;;;;;6119742;23;20395;-76
2023/10/16 07:46:27;;;;;;;8.83;6.37;;;5.20;99.90;;;;;;6095009;23;20407;-76
2023/10/16 07:48:52;;;;;;;8.73;7.30;;;5.20;99.90;;;;;;6142774;23;20384;-75
2023/10/16 07:51:20;;;;;;;8.50;6.80;;;5.40;99.90;;;;;;6144750;23;20403;-75
2023/10/16 07:53:50;;;;;;;10.97;7.63;;;5.50;99.90;;;;;;6118790;23;20404;-75
2023/10/16 07:59:06;;;;;;;9.43;7.13;;;5.60;99.90;;;;;;6121167;23;20427;-75
2023/10/16 08:01:36;;;;;;;11.30;8.63;;;5.60;99.90;;;;;;6096810;23;20375;-74
2023/10/16 08:04:07;;;;;;;10.43;7.80;;;5.60;99.90;;;;;;6120713;23;20400;-74
2023/10/16 08:06:40;;;;;;;9.13;7.50;;;5.70;99.90;;;;;;6099075;23;20395;-76
2023/10/16 08:11:57;;;;;;;11.00;8.83;;;5.80;99.90;;;;;;6145618;23;20451;-74
2023/10/16 08:14:24;;;;;;;14.93;8.63;;;5.90;99.90;;;;;;6121411;23;20400;-77
2023/10/16 08:16:58;;;;;;;10.20;7.43;;;6.00;99.90;;;;;;6122168;23;20431;-74
2023/10/16 08:19:26;;;;;;;9.67;8.10;;;6.00;99.90;;;;;;6147126;23;20757;-75
2023/10/16 08:21:56;;;;;;;12.57;8.23;;;6.10;99.90;;;;;;6107498;23;20522;-76
2023/10/16 08:24:24;;;;;;;10.50;7.80;;;6.10;99.90;;;;;;6150786;23;20475;-77
2023/10/16 08:27:10;;;;;;;10.23;8.50;;;6.00;99.90;;;;;;6133097;23;20391;-77
2023/10/16 08:29:53;;;;;;;11.27;8.80;;;6.00;99.90;;;;;;6155611;23;20371;-75
2023/10/16 08:35:10;;;;;;;13.00;8.40;;;6.00;99.90;;;;;;6131872;23;20394;-76
2023/10/16 08:37:42;;;;;;;14.37;8.93;;;6.10;99.90;;;;;;6105917;23;20433;-75
2023/10/16 08:40:24;;;;;;;10.73;8.60;;;6.20;99.90;;;;;;6091084;23;20445;-77
2023/10/16 08:43:08;;;;;;;12.93;8.47;;;6.40;99.90;;;;;;6084668;23;20386;-75
2023/10/16 08:45:34;;;;;;;11.10;7.80;;;6.50;99.90;;;;;;6086033;23;20381;-75
2023/10/16 08:48:08;;;;;;;11.33;7.40;;;6.70;99.90;;;;;;6085232;23;20542;-77
2023/10/16 08:50:40;;;;;;;9.93;8.43;;;6.90;99.90;;;;;;6086706;23;20408;-75
2023/10/16 08:56:03;;;;;;;11.23;7.70;;;6.90;99.90;;;;;;6087968;23;20413;-76
2023/10/16 08:58:41;;;;;;;12.80;8.43;;;6.80;99.90;;;;;;6065988;23;20385;-76
2023/10/16 09:01:12;;;;;;;13.23;9.23;;;6.80;99.90;;;;;;6065925;23;20373;-77
2023/10/16 09:03:46;;;;;;;10.40;8.20;;;7.00;99.90;;;;;;6067344;23;20405;-77
2023/10/16 09:06:25;;;;;;;12.10;8.30;;;7.10;99.90;;;;;;6066187;23;20402;-76
2023/10/16 09:08:54;;;;;;;13.13;9.40;;;7.20;99.90;;;;;;6041008;23;20377;-77
2023/10/16 09:11:21;;;;;;;14.43;8.07;;;7.20;99.90;;;;;;6086231;23;20387;-74
2023/10/16 09:13:52;;;;;;;9.37;6.10;;;7.20;99.90;;;;;;6087476;23;20456;-77
2023/10/16 09:16:25;;;;;;;15.03;10.10;;;7.30;99.90;;;;;;6066578;23;20440;-76
2023/10/16 09:18:57;;;;;;;11.93;7.73;;;7.30;99.90;;;;;;6091525;23;20361;-76
2023/10/16 09:21:28;;;;;;;17.57;11.73;;;7.30;99.90;;;;;;6090481;23;20397;-77
2023/10/16 09:24:00;;;;;;;15.50;10.67;;;7.40;99.90;;;;;;6109184;23;20378;-75
2023/10/16 09:26:32;;;;;;;17.10;10.30;;;7.60;99.90;;;;;;6129574;23;20386;-77
2023/10/16 09:29:20;;;;;;;14.90;10.67;;;7.70;99.90;;;;;;6152920;23;20390;-78
2023/10/16 09:31:52;;;;;;;14.27;10.53;;;7.80;99.90;;;;;;6152616;23;20447;-77
2023/10/16 09:34:27;;;;;;;21.47;12.37;;;7.80;99.90;;;;;;6152877;23;20697;-75
2023/10/16 09:39:46;;;;;;;21.37;12.20;;;7.80;99.90;;;;;;6178322;23;20371;-75
2023/10/16 09:42:12;;;;;;;16.07;10.10;;;8.00;99.90;;;;;;6127210;23;20394;-78
2023/10/16 09:44:44;;;;;;;22.73;12.50;;;7.90;99.90;;;;;;6130473;23;20436;-76
2023/10/16 09:47:25;;;;;;;14.80;9.10;;;7.80;99.90;;;;;;6179239;23;20383;-76
2023/10/16 09:49:59;;;;;;;17.87;11.27;;;7.80;99.90;;;;;;6131875;23;20422;-77
2023/10/16 09:52:36;;;;;;;17.47;11.73;;;7.80;99.90;;;;;;6134135;23;20445;-77
2023/10/16 09:55:05;;;;;;;20.70;12.00;;;7.90;99.90;;;;;;6135524;23;20397;-78
2023/10/16 09:57:33;;;;;;;15.63;10.70;;;8.00;99.90;;;;;;6150465;23;20451;-78
2023/10/16 10:00:28;;;;;;;16.20;10.67;;;8.00;99.90;;;;;;6127060;23;20383;-78
2023/10/16 10:03:07;;;;;;;18.47;11.40;;;8.00;99.90;;;;;;6144789;23;20397;-77
2023/10/16 10:11:38;;;;;;;17.77;11.17;;;8.20;99.90;;;;;;6100007;23;20428;-75
2023/10/16 10:17:37;;;;;;;12.50;8.73;;;8.20;99.90;;;;;;6109075;23;20432;-78
2023/10/16 10:20:17;;;;;;;23.33;12.00;;;8.30;99.90;;;;;;6074833;23;20404;-77
2023/10/16 10:22:53;;;;;;;22.20;11.20;;;8.50;99.90;;;;;;6064895;23;20443;-76
2023/10/16 10:25:47;;;;;;;22.60;11.37;;;8.60;99.90;;;;;;5972169;23;20445;-77
2023/10/16 10:28:25;;;;;;;23.83;13.23;;;8.60;99.90;;;;;;6018724;23;20386;-77
2023/10/16 10:36:34;;;;;;;19.13;10.20;;;8.70;99.90;;;;;;6149397;23;20517;-78
2023/10/16 10:39:40;;;;;;;15.30;10.97;;;8.70;99.90;;;;;;6105747;23;20450;-79
2023/10/16 10:45:18;;;;;;;14.40;10.00;;;8.90;99.90;;;;;;6105667;23;20441;-77
2023/10/16 10:47:50;;;;;;;16.67;12.57;;;8.90;99.90;;;;;;6093801;23;20414;-77
2023/10/16 10:50:21;;;;;;;18.20;11.93;;;9.00;99.90;;;;;;6067881;23;20436;-76
2023/10/16 10:52:50;;;;;;;15.90;11.30;;;9.00;99.90;;;;;;6092125;23;20401;-77
2023/10/16 10:55:18;;;;;;;19.57;10.73;;;9.10;99.90;;;;;;6068002;23;20433;-77
2023/10/16 10:58:12;;;;;;;15.20;10.63;;;9.10;99.90;;;;;;6070651;23;20440;-77
2023/10/16 11:00:44;;;;;;;15.77;10.97;;;9.20;99.90;;;;;;6068924;23;20393;-77
2023/10/16 11:03:53;;;;;;;12.73;9.97;;;9.30;99.90;;;;;;6046903;23;20358;-76
2023/10/16 11:06:18;;;;;;;13.60;10.47;;;9.30;99.90;;;;;;6063147;23;20400;-78
2023/10/16 11:08:50;;;;;;;15.50;11.00;;;9.40;99.90;;;;;;6068611;23;20437;-75
2023/10/16 11:11:18;;;;;;;20.47;11.57;;;9.40;99.90;;;;;;6023592;23;20508;-76
2023/10/16 11:13:48;;;;;;;22.00;13.50;;;9.50;99.90;;;;;;6095509;23;20408;-76
2023/10/16 11:16:15;;;;;;;29.83;19.83;;;9.50;99.90;;;;;;6073525;23;20420;-78
2023/10/16 11:19:08;;;;;;;28.10;16.03;;;9.50;99.90;;;;;;6095820;23;20432;-77
2023/10/16 11:21:43;;;;;;;21.80;13.60;;;9.60;99.90;;;;;;6064144;23;20402;-75
2023/10/16 11:24:16;;;;;;;16.90;11.60;;;9.60;99.90;;;;;;6063711;23;20421;-78
2023/10/16 11:26:42;;;;;;;28.03;18.50;;;9.60;99.90;;;;;;6040358;23;20366;-77
2023/10/16 11:29:33;;;;;;;20.20;12.70;;;9.70;99.90;;;;;;6063977;23;20366;-77
2023/10/16 11:35:13;;;;;;;17.30;12.57;;;9.80;99.90;;;;;;6119680;23;20447;-77
2023/10/16 11:37:42;;;;;;;16.77;12.53;;;9.80;99.90;;;;;;6056598;23;20428;-76
2023/10/16 11:40:18;;;;;;;42.80;18.63;;;9.80;99.90;;;;;;6073495;23;20353;-76
2023/10/16 11:42:49;;;;;;;27.77;16.70;;;9.90;99.90;;;;;;6121958;23;20371;-78
2023/10/16 11:45:23;;;;;;;16.40;11.23;;;10.00;99.90;;;;;;6070131;23;20449;-76
2023/10/16 11:48:20;;;;;;;26.83;17.20;;;10.00;99.90;;;;;;6067298;23;20405;-76
2023/10/16 11:50:44;;;;;;;22.90;14.97;;;10.00;99.90;;;;;;6074218;23;20393;-77
2023/10/16 11:53:15;;;;;;;28.20;15.20;;;10.00;99.90;;;;;;5983223;23;21059;-76
2023/10/16 11:55:42;;;;;;;26.63;13.83;;;10.10;99.90;;;;;;6005146;24;20436;-75
2023/10/16 11:58:11;;;;;;;19.07;14.00;;;10.00;99.90;;;;;;6002269;24;20415;-77
2023/10/16 12:00:48;;;;;;;23.60;13.33;;;10.00;99.90;;;;;;5976438;24;20373;-77
2023/10/16 12:03:17;;;;;;;23.13;14.57;;;10.10;99.90;;;;;;5972067;24;20413;-75
2023/10/16 12:05:50;;;;;;;15.33;12.17;;;10.20;99.90;;;;;;5903940;24;20374;-77
2023/10/16 12:08:18;;;;;;;28.43;18.20;;;10.40;99.90;;;;;;5926002;24;20386;-76
2023/10/16 12:11:06;;;;;;;22.87;15.23;;;10.40;99.90;;;;;;5927576;24;20382;-77
2023/10/16 12:13:34;;;;;;;15.83;10.37;;;10.50;99.90;;;;;;5909941;23;20428;-77
2023/10/16 12:16:01;;;;;;;15.27;10.20;;;10.50;99.90;;;;;;6120580;23;20424;-75
2023/10/16 12:18:31;;;;;;;15.20;10.40;;;10.50;99.90;;;;;;6094016;23;20376;-74
2023/10/16 12:21:06;;;;;;;15.00;10.73;;;10.60;99.90;;;;;;6119939;23;20161;-76
2023/10/16 12:26:20;;;;;;;12.97;10.67;;;10.90;99.90;;;;;;6121279;23;20432;-76
2023/10/16 12:28:52;;;;;;;10.70;8.50;;;10.90;99.90;;;;;;6073088;23;20409;-76
2023/10/16 12:31:20;;;;;;;14.33;9.63;;;10.90;99.90;;;;;;6121068;23;20182;-76
2023/10/16 12:33:47;;;;;;;17.67;9.13;;;11.00;99.90;;;;;;6120825;23;20385;-76
2023/10/16 12:36:14;;;;;;;19.20;11.73;;;11.20;99.90;;;;;;6094219;23;20424;-77
2023/10/16 12:38:40;;;;;;;15.13;10.57;;;11.10;99.90;;;;;;6071219;23;20369;-76
2023/10/16 12:41:08;;;;;;;20.07;11.23;;;11.20;99.90;;;;;;6094587;23;20144;-77
2023/10/16 12:43:36;;;;;;;13.90;9.80;;;11.20;99.90;;;;;;6095706;23;20177;-76
2023/10/16 12:46:03;;;;;;;12.63;8.63;;;11.20;99.90;;;;;;6071036;23;20360;-76
2023/10/16 12:48:30;;;;;;;10.80;8.90;;;11.20;99.90;;;;;;6068689;23;20464;-77
2023/10/16 12:51:07;;;;;;;21.50;12.87;;;11.20;99.90;;;;;;6096619;23;20376;-76
2023/10/16 12:53:35;;;;;;;16.73;12.30;;;11.40;99.90;;;;;;6072125;23;20444;-75
2023/10/16 12:56:05;;;;;;;14.70;10.53;;;11.40;99.90;;;;;;6071461;23;20435;-78
2023/10/16 12:58:34;;;;;;;11.70;8.30;;;11.50;99.90;;;;;;6095947;23;20377;-76
2023/10/16 13:01:10;;;;;;;12.90;9.00;;;11.60;99.90;;;;;;6094953;23;20393;-75
2023/10/16 13:03:36;;;;;;;15.87;8.70;;;11.60;99.10;;;;;;6093668;23;20404;-77
2023/10/16 13:06:05;;;;;;;12.10;7.43;;;11.60;97.70;;;;;;6095874;23;20378;-76
2023/10/16 13:08:35;;;;;;;13.40;7.90;;;11.70;97.60;;;;;;6073541;23;20398;-77
2023/10/16 13:11:01;;;;;;;12.17;7.57;;;11.70;97.00;;;;;;6071982;23;20388;-76
2023/10/16 13:13:28;;;;;;;10.60;7.10;;;11.70;97.10;;;;;;6096225;23;20383;-77
2023/10/16 13:15:58;;;;;;;10.80;7.47;;;11.70;96.60;;;;;;6095962;23;20433;-76
2023/10/16 13:18:27;;;;;;;8.00;6.70;;;11.80;96.10;;;;;;6048587;23;20389;-76
2023/10/16 13:21:06;;;;;;;14.27;8.00;;;11.70;95.80;;;;;;6096930;23;20375;-77
2023/10/16 13:23:39;;;;;;;26.27;10.03;;;11.80;94.80;;;;;;6102567;23;21028;-77
2023/10/16 13:26:08;;;;;;;16.30;6.50;;;11.90;93.00;;;;;;6147607;23;20378;-77
2023/10/16 13:28:37;;;;;;;7.93;4.30;;;11.80;92.30;;;;;;6101627;23;20367;-78
2023/10/16 13:31:08;;;;;;;7.43;4.57;;;11.80;92.90;;;;;;6101998;23;20396;-76
2023/10/16 13:33:40;;;;;;;5.67;4.40;;;11.80;92.10;;;;;;6144729;23;20380;-77
2023/10/16 13:38:48;;;;;;;8.83;5.43;;;11.90;92.50;;;;;;6143775;23;20445;-77
2023/10/16 13:41:19;;;;;;;5.90;5.23;;;11.90;92.10;;;;;;6102703;23;20390;-77
2023/10/16 13:43:47;;;;;;;10.47;6.57;;;11.90;92.00;;;;;;6149201;23;20426;-77
2023/10/16 13:46:14;;;;;;;10.63;6.23;;;11.80;90.90;;;;;;6102145;23;20372;-78
2023/10/16 13:48:51;;;;;;;9.30;5.30;;;11.70;90.90;;;;;;6109711;23;20436;-76
2023/10/16 13:51:18;;;;;;;8.63;5.70;;;11.60;91.60;;;;;;6068297;23;20395;-77
2023/10/16 13:53:49;;;;;;;7.30;4.43;;;11.50;90.30;;;;;;6113760;23;20465;-77
2023/10/16 13:56:16;;;;;;;8.03;4.77;;;11.50;91.10;;;;;;6090673;23;20435;-77
2023/10/16 14:01:41;;;;;;;8.73;3.10;;;11.60;90.40;;;;;;6146709;23;20452;-77
2023/10/16 14:04:16;;;;;;;21.93;7.07;;;11.60;91.00;;;;;;6113278;23;20458;-77
2023/10/16 14:06:53;;;;;;;6.53;4.37;;;11.60;90.30;;;;;;6090398;23;20412;-77
2023/10/16 14:09:32;;;;;;;10.17;4.10;;;11.60;89.50;;;;;;6066998;23;20365;-76
2023/10/16 14:11:59;;;;;;;5.67;3.83;;;11.50;89.10;;;;;;6069063;23;20395;-77
2023/10/16 14:14:28;;;;;;;7.83;4.87;;;11.50;90.00;;;;;;6066388;23;20433;-77
2023/10/16 14:17:03;;;;;;;5.03;3.43;;;11.60;90.10;;;;;;6092429;23;20435;-78
2023/10/16 14:19:32;;;;;;;10.93;5.70;;;11.70;90.50;;;;;;6127517;23;20387;-77
2023/10/16 14:21:59;;;;;;;10.27;5.90;;;11.70;87.80;;;;;;6150752;23;20416;-77
2023/10/16 14:30:18;;;;;;;8.40;5.80;;;11.80;87.00;;;;;;6142988;23;20498;-76
2023/10/16 14:32:48;;;;;;;11.13;5.20;;;11.90;87.50;;;;;;6123814;23;20380;-76
2023/10/16 14:35:19;;;;;;;11.30;5.73;;;11.90;87.00;;;;;;6146337;23;20428;-78
2023/10/16 14:37:44;;;;;;;17.90;8.10;;;12.00;87.40;;;;;;6182350;23;20509;-77
2023/10/16 14:40:15;;;;;;;13.60;5.97;;;12.00;86.60;;;;;;6181377;23;20373;-75
2023/10/16 14:42:45;;;;;;;10.70;5.73;;;12.00;84.60;;;;;;6157010;23;20366;-78
2023/10/16 14:45:19;;;;;;;4.73;3.40;;;12.10;84.50;;;;;;6106197;23;20454;-77
2023/10/16 14:47:46;;;;;;;5.77;3.53;;;12.00;82.60;;;;;;6073738;23;20390;-78
2023/10/16 14:50:14;;;;;;;5.60;3.23;;;12.00;81.00;;;;;;6096246;23;20412;-75
2023/10/16 14:53:01;;;;;;;4.20;2.30;;;12.00;80.80;;;;;;6096833;23;20357;-78
2023/10/16 14:55:30;;;;;;;4.43;3.07;;;11.80;80.30;;;;;;6075127;23;20397;-76
2023/10/16 14:58:00;;;;;;;10.80;3.50;;;11.80;81.10;;;;;;6074461;23;20402;-77
2023/10/16 15:00:37;;;;;;;5.70;2.57;;;11.80;80.60;;;;;;6010633;23;20391;-78
2023/10/16 15:03:10;;;;;;;8.80;3.23;;;11.70;80.20;;;;;;6033122;23;20879;-77
2023/10/16 15:05:46;;;;;;;5.60;2.60;;;11.70;79.90;;;;;;6032814;23;20413;-78
2023/10/16 15:11:03;;;;;;;2.23;1.70;;;11.60;81.10;;;;;;6121872;23;20441;-77
2023/10/16 15:13:29;;;;;;;6.50;3.27;;;11.60;82.00;;;;;;6096975;23;20430;-78
2023/10/16 15:15:58;;;;;;;6.43;3.50;;;11.50;82.20;;;;;;6075140;23;20416;-78
2023/10/16 15:18:27;;;;;;;4.50;3.50;;;11.50;82.50;;;;;;6050571;23;20681;-78
2023/10/16 15:20:57;;;;;;;6.30;3.80;;;11.50;82.90;;;;;;6100030;23;20357;-78
2023/10/16 15:23:24;;;;;;;5.70;3.70;;;11.40;83.50;;;;;;6073827;23;20414;-78
2023/10/16 15:25:53;;;;;;;6.60;3.40;;;11.40;85.00;;;;;;6049935;23;20397;-76
2023/10/16 15:28:19;;;;;;;5.00;2.90;;;11.40;85.00;;;;;;6073764;23;20385;-79
2023/10/16 15:30:45;;;;;;;4.43;3.10;;;11.30;85.50;;;;;;6073932;23;20381;-76
2023/10/16 15:33:13;;;;;;;5.10;3.27;;;11.30;86.20;;;;;;6094964;23;20373;-78
2023/10/16 15:35:45;;;;;;;6.17;4.47;;;11.20;87.10;;;;;;6120506;23;20147;-77
2023/10/16 15:38:12;;;;;;;7.33;4.47;;;11.10;87.80;;;;;;6072485;23;20359;-78
2023/10/16 15:40:43;;;;;;;7.00;4.20;;;11.00;88.90;;;;;;6073408;23;20363;-77
2023/10/16 15:43:09;;;;;;;7.83;4.43;;;10.90;89.70;;;;;;6095205;23;20643;-77